Time;durP1;ratioP1;P1;durP2;ratioP2;P2;SDS_P1;SDS_P2;PMS_P1;PMS_P2;Temp;Humidity;BMP_temperature;BMP_pressure;BME280_temperature;BME280_humidity;BME280_pressure;Samples;Min_cycle;Max_cycle;Signal;HPM_P1;HPM_P2
2024/02/04 00:00:00;;;;;;;1.53;1.43;;;;;;;19.53;48.06;98359.69;5020539;28;20570;-25
2024/02/04 00:02:27;;;;;;;1.60;1.50;;;;;;;19.59;47.96;98367.63;5003372;28;20250;-25
2024/02/04 00:04:53;;;;;;;1.63;1.53;;;;;;;19.59;48.06;98365.97;5011942;28;20210;-25
2024/02/04 00:07:20;;;;;;;1.70;1.60;;;;;;;19.59;48.13;98372.75;5016821;28;20198;-25
2024/02/04 00:09:47;;;;;;;1.60;1.50;;;;;;;19.58;48.13;98384.63;5018400;28;20198;-26
2024/02/04 00:12:13;;;;;;;1.60;1.50;;;;;;;19.59;48.04;98393.13;5015216;28;20195;-27
2024/02/04 00:14:40;;;;;;;1.63;1.53;;;;;;;19.58;47.92;98382.09;5018294;28;20623;-25
2024/02/04 00:17:07;;;;;;;1.53;1.43;;;;;;;19.58;48.01;98371.00;5023031;28;20205;-26
2024/02/04 00:19:34;;;;;;;1.60;1.50;;;;;;;19.55;47.93;98356.44;5017169;28;20846;-25
2024/02/04 00:22:00;;;;;;;1.70;1.60;;;;;;;19.60;48.08;98366.88;5014729;28;20700;-25
2024/02/04 00:24:27;;;;;;;1.63;1.53;;;;;;;19.59;48.00;98350.69;5015898;28;20671;-25
2024/02/04 00:26:54;;;;;;;1.87;1.77;;;;;;;19.61;47.73;98350.75;5014688;28;20234;-28
2024/02/04 00:29:21;;;;;;;1.93;1.50;;;;;;;19.61;47.81;98341.44;5014315;28;20661;-26
2024/02/04 00:31:47;;;;;;;1.80;1.70;;;;;;;19.62;47.84;98335.53;5017252;28;20255;-28
2024/02/04 00:34:14;;;;;;;1.70;1.60;;;;;;;19.60;48.06;98337.13;5014857;28;20673;-25
2024/02/04 00:36:41;;;;;;;1.67;1.57;;;;;;;19.61;47.87;98336.34;5014314;28;20775;-25
2024/02/04 00:39:07;;;;;;;1.60;1.50;;;;;;;19.61;47.86;98351.66;5018489;28;20201;-25
2024/02/04 00:41:34;;;;;;;1.57;1.47;;;;;;;19.61;47.81;98346.53;5003319;28;20256;-25
2024/02/04 00:44:01;;;;;;;1.70;1.60;;;;;;;19.59;48.04;98332.84;5013190;28;20620;-27
2024/02/04 00:46:28;;;;;;;1.60;1.50;;;;;;;19.60;48.04;98336.28;5013396;28;20280;-25
2024/02/04 00:48:54;;;;;;;1.90;1.80;;;;;;;19.59;47.62;98345.59;5015440;28;20201;-25
2024/02/04 00:51:21;;;;;;;1.60;1.50;;;;;;;19.59;47.92;98347.25;5015391;28;20280;-25
2024/02/04 00:53:48;;;;;;;1.60;1.50;;;;;;;19.58;47.94;98348.06;5020730;28;20198;-25
2024/02/04 00:56:15;;;;;;;1.53;1.20;;;;;;;19.58;48.06;98346.38;5010837;28;20222;-25
2024/02/04 00:58:41;;;;;;;1.70;1.60;;;;;;;19.59;48.04;98342.16;5016141;28;20689;-27
2024/02/04 01:01:08;;;;;;;1.73;1.63;;;;;;;19.59;48.04;98349.78;5011249;28;20214;-28
2024/02/04 01:03:34;;;;;;;1.70;1.60;;;;;;;19.60;47.87;98351.56;5014339;28;20233;-26
2024/02/04 01:06:01;;;;;;;1.70;1.60;;;;;;;19.61;47.99;98350.75;5021742;28;20329;-25
2024/02/04 01:08:28;;;;;;;1.60;1.50;;;;;;;19.60;48.12;98352.41;5014897;28;20198;-26
2024/02/04 01:10:55;;;;;;;1.67;1.57;;;;;;;19.59;48.00;98357.44;5012330;28;20203;-26
2024/02/04 01:13:21;;;;;;;1.57;1.47;;;;;;;19.55;47.92;98360.66;5000834;28;20263;-25
2024/02/04 01:15:48;;;;;;;2.70;1.50;;;;;;;19.62;48.83;98365.25;5020163;28;20214;-25
2024/02/04 01:18:14;;;;;;;1.60;1.50;;;;;;;19.60;48.00;98352.41;5010645;28;20221;-26
2024/02/04 01:20:41;;;;;;;1.53;1.43;;;;;;;19.59;47.80;98345.59;5013059;28;20215;-25
2024/02/04 01:23:08;;;;;;;1.70;1.60;;;;;;;19.61;47.88;98348.22;5010002;28;20218;-25
2024/02/04 01:25:35;;;;;;;1.67;1.57;;;;;;;19.61;47.90;98353.31;5016601;28;20252;-25
2024/02/04 01:28:04;;;;;;;1.80;1.50;;;;;;;19.61;48.03;98360.97;5013160;28;20614;-25
2024/02/04 01:30:31;;;;;;;1.50;1.40;;;;;;;19.60;48.00;98349.88;5012905;28;20704;-27
2024/02/04 01:32:58;;;;;;;1.50;1.40;;;;;;;19.57;47.93;98342.06;5003424;28;20199;-25
2024/02/04 01:35:25;;;;;;;1.63;1.53;;;;;;;19.60;47.91;98346.47;5004856;28;20595;-25
2024/02/04 01:37:51;;;;;;;1.53;1.43;;;;;;;19.59;47.97;98342.16;5013801;28;20237;-27
2024/02/04 01:40:18;;;;;;;1.67;1.57;;;;;;;19.57;48.20;98338.66;5013283;28;20277;-25
2024/02/04 01:42:44;;;;;;;1.40;1.30;;;;;;;19.59;48.04;98357.44;5015034;28;20222;-25
2024/02/04 01:45:11;;;;;;;1.47;1.37;;;;;;;19.60;47.92;98361.78;5016294;28;20608;-25
2024/02/04 01:47:38;;;;;;;1.50;1.40;;;;;;;19.58;47.45;98345.50;5018955;28;20210;-25
2024/02/04 01:50:05;;;;;;;1.40;1.30;;;;;;;19.62;47.97;98352.50;5009340;28;20257;-25
2024/02/04 01:52:32;;;;;;;1.60;1.50;;;;;;;19.63;47.83;98359.38;5013100;28;20256;-33
2024/02/04 01:54:59;;;;;;;1.60;1.50;;;;;;;19.62;47.86;98350.84;4994648;28;20308;-25
2024/02/04 01:57:26;;;;;;;1.60;1.50;;;;;;;19.62;47.82;98349.94;5004492;28;20264;-26
2024/02/04 01:59:54;;;;;;;1.70;1.60;;;;;;;19.61;47.88;98343.09;5000332;28;20206;-25
2024/02/04 02:02:21;;;;;;;1.60;1.50;;;;;;;19.60;47.90;98342.22;5000572;28;20277;-25
2024/02/04 02:04:47;;;;;;;1.63;1.53;;;;;;;19.61;47.92;98336.34;5025059;28;20206;-26
2024/02/04 02:07:16;;;;;;;1.60;1.50;;;;;;;19.60;48.04;98332.03;4994604;28;20199;-26
2024/02/04 02:09:43;;;;;;;1.63;1.53;;;;;;;19.61;48.00;98330.34;4994841;28;20290;-26
2024/02/04 02:12:11;;;;;;;1.40;1.30;;;;;;;19.60;47.89;98320.97;5009216;28;20265;-25
2024/02/04 02:14:40;;;;;;;1.40;1.30;;;;;;;19.55;47.81;98305.44;4995388;28;20632;-25
2024/02/04 02:17:17;;;;;;;1.40;1.30;;;;;;;19.59;48.05;98312.44;4980056;28;20285;-29
2024/02/04 02:20:07;;;;;;;1.50;1.40;;;;;;;19.58;47.84;98305.59;5013112;28;20225;-25
2024/02/04 02:22:47;;;;;;;1.40;1.30;;;;;;;19.59;47.92;98314.97;5006386;28;20701;-25
2024/02/04 02:25:14;;;;;;;1.50;1.40;;;;;;;19.60;47.91;98305.66;4996926;28;20762;-25
2024/02/04 02:27:48;;;;;;;1.60;1.50;;;;;;;19.61;47.83;98299.75;5012554;28;20213;-25
2024/02/04 02:30:16;;;;;;;1.20;1.20;;;;;;;19.62;47.80;98311.69;5011541;28;20204;-25
2024/02/04 02:32:46;;;;;;;1.27;1.20;;;;;;;19.60;47.84;98308.22;5012712;28;20625;-25
2024/02/04 02:35:14;;;;;;;1.67;1.57;;;;;;;19.62;47.99;98307.47;4995154;28;20222;-25
2024/02/04 02:38:04;;;;;;;1.60;1.50;;;;;;;19.62;47.87;98311.69;5012476;28;20213;-25
2024/02/04 02:40:37;;;;;;;1.50;1.40;;;;;;;19.62;47.89;98319.34;4997400;28;20198;-25
2024/02/04 02:43:04;;;;;;;1.40;1.30;;;;;;;19.58;47.96;98309.81;5020756;28;20679;-32
2024/02/04 02:45:31;;;;;;;1.37;1.27;;;;;;;19.61;48.00;98322.72;4972358;28;20245;-25
2024/02/04 02:47:58;;;;;;;1.20;1.20;;;;;;;19.60;47.87;98326.94;5003429;28;20774;-26
2024/02/04 02:50:25;;;;;;;1.57;1.47;;;;;;;19.53;47.61;98313.78;4991617;28;20198;-25
2024/02/04 02:52:51;;;;;;;1.50;1.40;;;;;;;19.58;47.99;98320.00;5007589;28;20225;-25
2024/02/04 02:55:18;;;;;;;1.87;1.70;;;;;;;19.60;47.90;98320.97;5011911;28;20234;-25
2024/02/04 02:57:44;;;;;;;1.47;1.37;;;;;;;19.60;47.90;98323.53;5013462;28;20210;-26
2024/02/04 03:00:12;;;;;;;1.57;1.47;;;;;;;19.59;48.01;98314.09;5015351;28;20194;-25
2024/02/04 03:02:38;;;;;;;1.27;1.27;;;;;;;19.59;47.55;98322.63;5013620;28;20222;-26
2024/02/04 03:05:05;;;;;;;1.90;1.40;;;;;;;19.60;47.75;98321.81;5005088;28;20277;-26
2024/02/04 03:07:32;;;;;;;1.50;1.40;;;;;;;19.61;47.96;98331.25;5012201;28;20206;-25
2024/02/04 03:09:58;;;;;;;1.50;1.40;;;;;;;19.62;47.88;98332.97;5012363;28;20257;-25
2024/02/04 03:12:25;;;;;;;1.30;1.20;;;;;;;19.62;47.80;98332.97;5011065;28;20194;-25
2024/02/04 03:14:52;;;;;;;1.30;1.20;;;;;;;19.56;47.90;98335.22;5010375;28;20657;-25
2024/02/04 03:17:20;;;;;;;1.40;1.30;;;;;;;19.63;47.94;98341.53;5012005;28;20194;-25
2024/02/04 03:19:48;;;;;;;1.40;1.30;;;;;;;19.60;47.90;98343.91;5012172;28;20237;-26
2024/02/04 03:22:15;;;;;;;1.20;1.10;;;;;;;19.61;47.78;98346.53;5011525;28;20198;-25
2024/02/04 03:24:42;;;;;;;1.73;1.60;;;;;;;19.61;47.92;98349.09;5009929;28;20198;-25
2024/02/04 03:27:09;;;;;;;1.23;1.13;;;;;;;19.61;47.88;98346.53;5003338;28;20257;-25
2024/02/04 03:29:35;;;;;;;1.87;1.50;;;;;;;19.59;47.84;98348.13;5007327;28;20209;-25
2024/02/04 03:32:02;;;;;;;1.37;1.27;;;;;;;19.60;47.95;98341.38;5011920;28;20206;-27
2024/02/04 03:34:29;;;;;;;1.70;1.60;;;;;;;19.59;48.02;98347.25;5011613;28;20248;-25
2024/02/04 03:36:56;;;;;;;1.53;1.43;;;;;;;19.57;47.96;98343.78;5011700;28;20222;-25
2024/02/04 03:39:22;;;;;;;1.53;1.43;;;;;;;19.57;48.07;98362.47;5010891;28;20213;-25
2024/02/04 03:41:49;;;;;;;1.30;1.20;;;;;;;19.56;47.90;98353.09;5012112;28;20280;-25
2024/02/04 03:44:15;;;;;;;1.53;1.43;;;;;;;19.57;47.92;98342.06;5013641;28;20225;-25
2024/02/04 03:46:42;;;;;;;1.40;1.30;;;;;;;19.59;47.84;98349.78;5015759;28;20312;-25
2024/02/04 03:49:09;;;;;;;1.67;1.57;;;;;;;19.60;48.09;98352.41;5010537;28;20233;-25
2024/02/04 03:51:35;;;;;;;1.30;1.20;;;;;;;19.61;47.95;98356.75;5015896;28;20202;-25
2024/02/04 03:54:02;;;;;;;1.40;1.30;;;;;;;19.61;47.74;98355.84;5013731;28;20198;-25
2024/02/04 03:56:29;;;;;;;1.60;1.50;;;;;;;19.60;47.95;98352.41;5014359;28;20230;-26
2024/02/04 03:58:55;;;;;;;1.57;1.47;;;;;;;19.61;48.00;98350.75;5014804;28;20202;-25
2024/02/04 04:01:22;;;;;;;1.50;1.40;;;;;;;19.59;47.90;98345.59;5013973;28;20290;-25
2024/02/04 04:03:48;;;;;;;1.40;1.30;;;;;;;19.59;47.98;98331.94;5007861;28;20218;-25
2024/02/04 04:06:15;;;;;;;1.53;1.30;;;;;;;19.59;48.06;98334.50;5014938;28;20214;-28
2024/02/04 04:08:42;;;;;;;1.67;1.57;;;;;;;19.58;48.11;98326.00;5015073;28;20202;-25
2024/02/04 04:11:09;;;;;;;1.50;1.40;;;;;;;19.52;47.96;98327.34;5006171;28;20264;-25
2024/02/04 04:13:36;;;;;;;1.40;1.30;;;;;;;19.58;47.99;98342.97;5008755;28;20281;-25
2024/02/04 04:16:03;;;;;;;1.53;1.43;;;;;;;19.59;47.93;98342.16;5014902;28;20218;-25
2024/02/04 04:18:30;;;;;;;1.33;1.23;;;;;;;19.57;47.93;98336.13;4997924;28;20206;-25
2024/02/04 04:20:57;;;;;;;1.43;1.27;;;;;;;19.59;48.06;98344.69;5008374;28;20229;-25
2024/02/04 04:23:24;;;;;;;1.70;1.60;;;;;;;19.34;47.91;98294.19;5013875;28;20732;-25
2024/02/04 04:25:50;;;;;;;1.20;1.10;;;;;;;19.59;47.99;98327.72;5014677;28;20284;-26
2024/02/04 04:28:17;;;;;;;1.80;1.70;;;;;;;19.60;48.01;98333.72;5014785;28;20652;-25
2024/02/04 04:30:43;;;;;;;1.20;1.20;;;;;;;19.61;47.96;98350.75;5014409;28;20658;-26
2024/02/04 04:33:11;;;;;;;1.57;1.47;;;;;;;19.59;47.82;98329.41;5007365;28;20198;-25
2024/02/04 04:35:39;;;;;;;1.40;1.30;;;;;;;19.61;47.96;98336.34;5009701;28;20218;-26
2024/02/04 04:38:05;;;;;;;1.50;1.40;;;;;;;19.61;48.00;98338.91;5013302;28;20198;-25
2024/02/04 04:40:32;;;;;;;1.40;1.30;;;;;;;19.58;47.70;98333.66;5008788;28;20349;-26
2024/02/04 04:42:58;;;;;;;1.57;1.47;;;;;;;19.60;47.88;98351.56;5006750;28;20218;-25
2024/02/04 04:45:25;;;;;;;1.50;1.33;;;;;;;19.55;47.98;98341.16;5013045;28;20584;-25
2024/02/04 04:47:52;;;;;;;1.60;1.50;;;;;;;19.58;48.07;98340.41;5014340;28;20229;-25
2024/02/04 04:50:19;;;;;;;1.50;1.40;;;;;;;19.59;47.96;98347.25;5013674;28;20297;-25
2024/02/04 04:52:46;;;;;;;5.03;1.40;;;;;;;19.59;47.92;98343.03;5008956;28;20198;-25
2024/02/04 04:55:12;;;;;;;1.40;1.30;;;;;;;19.58;48.15;98343.84;5014489;28;20214;-25
2024/02/04 04:57:39;;;;;;;1.43;1.33;;;;;;;19.59;47.78;98342.16;5010103;28;20278;-25
2024/02/04 05:00:09;;;;;;;1.50;1.40;;;;;;;19.57;47.94;98336.97;5014804;28;20241;-26
2024/02/04 05:02:36;;;;;;;1.43;1.33;;;;;;;19.59;47.91;98331.94;5014178;28;20245;-25
2024/02/04 05:05:03;;;;;;;1.40;1.30;;;;;;;19.61;47.78;98328.69;5008987;28;20265;-26
2024/02/04 05:07:30;;;;;;;1.43;1.30;;;;;;;19.61;47.85;98328.69;5005284;28;20264;-25
2024/02/04 05:09:57;;;;;;;1.40;1.30;;;;;;;19.63;47.68;98329.63;5010934;28;20202;-25
2024/02/04 05:12:23;;;;;;;1.40;1.30;;;;;;;19.63;47.88;98329.63;5014006;28;20272;-25
2024/02/04 05:14:50;;;;;;;1.53;1.43;;;;;;;19.61;47.81;98323.59;5011020;28;20194;-26
2024/02/04 05:17:16;;;;;;;1.50;1.40;;;;;;;19.61;47.84;98326.16;5006871;28;20258;-26
2024/02/04 05:19:43;;;;;;;1.40;1.30;;;;;;;19.61;47.94;98313.41;5013994;28;20245;-25
2024/02/04 05:22:10;;;;;;;1.50;1.40;;;;;;;19.60;47.82;98313.31;5002076;28;20300;-25
2024/02/04 05:24:37;;;;;;;1.37;1.27;;;;;;;19.60;47.92;98316.72;5013459;28;20288;-30
2024/02/04 05:27:04;;;;;;;1.40;1.30;;;;;;;19.60;47.95;98308.22;5011668;28;20289;-26
2024/02/04 05:29:31;;;;;;;1.50;1.40;;;;;;;19.59;47.90;98314.97;5009053;28;20296;-28
2024/02/04 05:31:57;;;;;;;1.27;1.20;;;;;;;19.51;47.85;98297.56;5011389;28;20290;-26
2024/02/04 05:34:24;;;;;;;1.27;1.17;;;;;;;19.60;47.99;98315.88;5013186;28;20195;-25
2024/02/04 05:36:51;;;;;;;1.30;1.20;;;;;;;19.59;47.54;98316.66;4996044;28;20716;-26
2024/02/04 05:39:17;;;;;;;1.20;1.20;;;;;;;19.59;47.82;98320.09;5009402;28;20214;-26
2024/02/04 05:41:44;;;;;;;1.17;1.17;;;;;;;19.60;47.87;98320.97;5004018;28;20230;-25
2024/02/04 05:44:10;;;;;;;1.20;1.20;;;;;;;19.61;47.74;98320.16;5013207;28;20306;-25
2024/02/04 05:46:37;;;;;;;1.33;1.23;;;;;;;19.59;47.87;98312.44;5010111;28;20844;-25
2024/02/04 05:49:04;;;;;;;1.30;1.20;;;;;;;19.62;47.88;98312.59;5013474;28;20289;-25
2024/02/04 05:51:32;;;;;;;1.40;1.30;;;;;;;19.63;47.84;98316.03;5010887;28;20233;-26
2024/02/04 05:53:59;;;;;;;1.37;1.27;;;;;;;19.63;48.37;98314.31;5013487;28;20384;-26
2024/02/04 05:56:26;;;;;;;1.40;1.30;;;;;;;19.60;48.07;98315.88;5012045;28;20719;-26
2024/02/04 05:58:52;;;;;;;1.33;1.23;;;;;;;19.62;47.86;98322.78;5003190;28;20249;-25
2024/02/04 06:01:19;;;;;;;1.20;1.10;;;;;;;19.61;47.80;98322.72;5003435;28;20273;-25
2024/02/04 06:03:45;;;;;;;1.33;1.23;;;;;;;19.60;47.86;98318.41;5008096;28;20306;-25
2024/02/04 06:06:16;;;;;;;1.30;1.20;;;;;;;19.60;47.90;98324.38;5005079;28;20697;-26
2024/02/04 06:08:43;;;;;;;1.20;1.20;;;;;;;19.58;47.83;98327.66;5012433;28;20240;-26
2024/02/04 06:11:10;;;;;;;1.10;1.10;;;;;;;19.60;47.86;98328.63;5010156;28;20205;-25
2024/02/04 06:13:41;;;;;;;1.20;1.20;;;;;;;19.53;47.82;98314.69;5010547;28;20288;-25
2024/02/04 06:16:08;;;;;;;1.50;1.40;;;;;;;19.55;48.00;98324.97;5006920;28;20630;-25
2024/02/04 06:18:37;;;;;;;1.30;1.20;;;;;;;19.59;48.00;98332.84;5006412;28;20206;-25
2024/02/04 06:21:04;;;;;;;1.20;1.20;;;;;;;19.62;47.85;98334.66;5012787;28;20572;-26
2024/02/04 06:23:31;;;;;;;1.43;1.33;;;;;;;19.34;47.46;98284.00;5009021;28;20318;-26
2024/02/04 06:25:57;;;;;;;1.20;1.20;;;;;;;19.63;47.72;98338.97;5021667;28;20229;-25
2024/02/04 06:28:24;;;;;;;1.40;1.30;;;;;;;19.64;47.88;98343.25;5015504;28;20199;-32
2024/02/04 06:30:51;;;;;;;1.37;1.27;;;;;;;19.64;47.48;98344.16;5019256;28;20206;-25
2024/02/04 06:33:17;;;;;;;1.17;1.10;;;;;;;19.64;47.76;98348.34;5015960;28;20194;-25
2024/02/04 06:35:44;;;;;;;1.17;1.17;;;;;;;19.63;47.89;98346.63;4999020;28;20280;-25
2024/02/04 06:38:11;;;;;;;1.47;1.30;;;;;;;19.63;47.92;98346.63;4999959;28;20233;-25
2024/02/04 06:40:37;;;;;;;1.17;1.17;;;;;;;19.62;47.78;98339.75;5015263;28;20246;-25
2024/02/04 06:43:04;;;;;;;1.27;1.20;;;;;;;19.63;48.05;98341.53;5020247;28;20198;-26
2024/02/04 06:45:30;;;;;;;1.40;1.30;;;;;;;19.63;47.85;98331.31;5014826;28;20229;-25
2024/02/04 06:47:57;;;;;;;1.10;1.10;;;;;;;19.61;48.00;98335.47;5013285;28;20208;-25
2024/02/04 06:50:24;;;;;;;1.10;1.10;;;;;;;19.61;47.69;98328.69;5010353;28;20202;-25
2024/02/04 06:52:50;;;;;;;1.10;1.10;;;;;;;19.61;47.94;98331.25;5009911;28;20234;-27
2024/02/04 06:55:17;;;;;;;1.40;1.30;;;;;;;19.60;47.80;98324.38;5015993;28;20276;-25
2024/02/04 06:57:43;;;;;;;1.17;1.17;;;;;;;19.60;47.84;98326.94;5013433;28;20627;-25
2024/02/04 07:00:11;;;;;;;1.30;1.20;;;;;;;19.61;47.85;98338.00;5007374;28;20257;-25
2024/02/04 07:02:37;;;;;;;1.40;1.30;;;;;;;19.59;47.78;98326.84;5016270;28;20675;-25
2024/02/04 07:05:04;;;;;;;1.17;1.10;;;;;;;19.63;47.86;98337.28;5005165;28;20228;-25
2024/02/04 07:07:31;;;;;;;1.00;1.00;;;;;;;19.64;47.87;98333.06;5011861;28;20261;-26
2024/02/04 07:09:59;;;;;;;1.00;1.00;;;;;;;19.64;47.85;98349.25;5007611;28;20660;-25
2024/02/04 07:12:25;;;;;;;1.30;1.20;;;;;;;19.59;48.19;98331.94;5011599;28;20201;-26
2024/02/04 07:14:52;;;;;;;1.10;1.10;;;;;;;19.58;47.85;98326.00;4998585;28;20571;-25
2024/02/04 07:17:19;;;;;;;1.23;1.17;;;;;;;19.64;47.75;98348.34;5016467;28;20199;-25
2024/02/04 07:19:45;;;;;;;1.10;1.10;;;;;;;19.63;47.94;98360.22;5011220;28;20234;-28
2024/02/04 07:22:12;;;;;;;1.30;1.20;;;;;;;19.63;48.04;98354.28;5013931;28;20245;-25
2024/02/04 07:24:39;;;;;;;1.03;1.03;;;;;;;19.62;47.84;98345.72;5011190;28;20316;-25
2024/02/04 07:27:05;;;;;;;1.30;1.20;;;;;;;19.59;48.10;98335.38;5013845;28;20235;-26
2024/02/04 07:29:32;;;;;;;1.10;1.10;;;;;;;19.61;48.03;98336.34;5007245;28;20210;-25
2024/02/04 07:31:58;;;;;;;1.10;1.10;;;;;;;19.61;47.90;98333.78;5012562;28;20202;-25
2024/02/04 07:34:25;;;;;;;1.30;1.20;;;;;;;19.61;47.93;98328.69;5011885;28;20191;-25
2024/02/04 07:36:52;;;;;;;1.27;1.20;;;;;;;19.62;47.76;98337.19;5011020;28;20261;-27
2024/02/04 07:39:19;;;;;;;1.30;1.20;;;;;;;19.61;47.60;98338.91;5017156;28;20220;-26
2024/02/04 07:41:45;;;;;;;1.00;1.00;;;;;;;19.64;47.88;98340.72;5015751;28;20198;-25
2024/02/04 07:44:12;;;;;;;1.20;1.20;;;;;;;19.63;47.76;98346.63;5020969;28;20846;-25
2024/02/04 07:46:39;;;;;;;1.27;1.20;;;;;;;19.63;47.85;98350.03;5005865;28;20308;-26
2024/02/04 07:49:05;;;;;;;1.07;1.07;;;;;;;19.63;47.67;98355.13;5024104;28;20202;-26
2024/02/04 07:51:32;;;;;;;1.10;1.10;;;;;;;19.56;47.73;98340.34;4996459;28;20587;-25
2024/02/04 07:53:59;;;;;;;1.30;1.20;;;;;;;19.64;48.03;98340.72;5018407;28;20285;-26
2024/02/04 07:56:26;;;;;;;1.10;1.10;;;;;;;19.63;47.70;98338.97;5011910;28;20258;-25
2024/02/04 07:58:52;;;;;;;1.10;1.10;;;;;;;19.63;47.80;98332.16;5011059;28;20210;-26
2024/02/04 08:01:19;;;;;;;1.20;1.20;;;;;;;19.61;47.65;98320.16;5005322;28;20242;-25
2024/02/04 08:03:47;;;;;;;1.40;1.30;;;;;;;19.63;47.71;98334.72;5016886;28;20677;-25
2024/02/04 08:06:14;;;;;;;1.30;1.20;;;;;;;19.61;48.13;98328.69;5020990;28;20699;-26
2024/02/04 08:08:42;;;;;;;1.60;1.50;;;;;;;19.58;47.80;98322.56;5013599;28;20245;-25
2024/02/04 08:11:09;;;;;;;1.30;1.20;;;;;;;19.61;47.78;98338.91;5011902;28;20238;-25
2024/02/04 08:13:35;;;;;;;1.10;1.10;;;;;;;19.61;47.82;98332.91;5017180;28;20289;-25
2024/02/04 08:16:02;;;;;;;1.40;1.30;;;;;;;19.60;47.75;98338.81;5015116;28;20363;-25
2024/02/04 08:18:28;;;;;;;1.30;1.20;;;;;;;19.59;47.44;98340.47;5010662;28;20241;-25
2024/02/04 08:20:55;;;;;;;1.33;1.10;;;;;;;19.58;47.44;98332.75;5015949;28;20206;-25
2024/02/04 08:23:22;;;;;;;1.30;1.20;;;;;;;19.59;47.60;98342.16;5012294;28;20199;-28
2024/02/04 08:25:49;;;;;;;1.17;1.13;;;;;;;19.57;47.42;98331.88;5014358;28;20304;-25
2024/02/04 08:28:16;;;;;;;1.30;1.20;;;;;;;19.56;47.33;98344.53;5010744;28;20202;-27
2024/02/04 08:30:43;;;;;;;1.30;1.20;;;;;;;19.56;47.45;98339.44;5017771;28;20198;-25
2024/02/04 08:33:10;;;;;;;1.47;1.30;;;;;;;19.54;47.60;98331.72;5017582;28;20572;-25
2024/02/04 08:35:36;;;;;;;1.90;1.43;;;;;;;19.52;47.45;98328.25;5004336;28;20230;-26
2024/02/04 08:38:03;;;;;;;1.50;1.40;;;;;;;19.52;47.29;98320.59;5015399;28;20226;-25
2024/02/04 08:40:30;;;;;;;1.43;1.33;;;;;;;19.51;47.34;98317.97;5015206;28;20206;-25
2024/02/04 08:42:56;;;;;;;1.57;1.43;;;;;;;19.49;47.28;98320.44;5016338;28;20679;-25
2024/02/04 08:45:23;;;;;;;2.70;1.40;;;;;;;19.47;47.40;98310.94;5015952;28;20228;-25
2024/02/04 08:47:50;;;;;;;2.00;1.30;;;;;;;19.47;47.44;98314.38;5013403;28;20198;-25
2024/02/04 08:50:16;;;;;;;1.30;1.20;;;;;;;19.47;47.41;98328.78;5015723;28;20225;-27
2024/02/04 08:52:43;;;;;;;1.40;1.30;;;;;;;19.47;47.30;98328.78;5014919;28;20228;-25
2024/02/04 08:55:10;;;;;;;1.43;1.33;;;;;;;19.46;47.55;98324.50;5014353;28;20269;-25
2024/02/04 08:57:36;;;;;;;1.40;1.30;;;;;;;19.47;47.32;98323.69;5010086;28;20207;-25
2024/02/04 09:00:03;;;;;;;3.60;1.37;;;;;;;19.46;47.46;98333.03;5014455;28;20194;-25
2024/02/04 09:02:30;;;;;;;1.40;1.30;;;;;;;19.46;47.45;98337.25;5016343;28;20225;-25
2024/02/04 09:04:56;;;;;;;1.67;1.47;;;;;;;19.45;47.48;98336.38;5014132;28;20217;-27
2024/02/04 09:07:23;;;;;;;1.47;1.30;;;;;;;19.45;47.82;98338.06;5021570;28;20271;-25
2024/02/04 09:09:50;;;;;;;1.50;1.40;;;;;;;19.44;47.47;98339.72;5012292;28;20293;-27
2024/02/04 09:12:16;;;;;;;1.30;1.20;;;;;;;19.43;47.40;98337.97;5021374;28;20198;-25
2024/02/04 09:14:43;;;;;;;1.50;1.40;;;;;;;19.42;47.47;98345.56;5017739;28;20695;-25
2024/02/04 09:17:10;;;;;;;1.40;1.30;;;;;;;19.47;47.86;98341.53;5017517;28;20195;-27
2024/02/04 09:19:36;;;;;;;7.07;1.57;;;;;;;19.47;47.93;98344.97;5012608;28;20681;-25
2024/02/04 09:22:08;;;;;;;1.43;1.33;;;;;;;19.46;47.90;98338.13;4994740;28;20232;-25
2024/02/04 09:24:35;;;;;;;1.50;1.40;;;;;;;19.47;47.72;98333.88;5015109;28;20343;-25
2024/02/04 09:27:02;;;;;;;2.33;1.40;;;;;;;19.40;47.63;98326.75;5010375;28;20256;-25
2024/02/04 09:29:28;;;;;;;1.37;1.27;;;;;;;19.47;47.58;98334.78;5008061;28;20206;-25
2024/02/04 09:31:55;;;;;;;1.40;1.30;;;;;;;19.46;47.65;98335.59;5010587;28;20203;-26
2024/02/04 09:34:22;;;;;;;1.93;1.37;;;;;;;19.48;47.46;98345.84;5014617;28;20194;-25
2024/02/04 09:36:48;;;;;;;1.30;1.20;;;;;;;19.49;47.70;98342.50;5006617;28;20313;-25
2024/02/04 09:39:15;;;;;;;2.50;1.30;;;;;;;19.49;47.44;98333.19;5014940;28;20194;-27
2024/02/04 09:41:43;;;;;;;2.37;1.30;;;;;;;19.49;47.61;98335.75;5008131;28;20286;-29
2024/02/04 09:44:10;;;;;;;1.50;1.40;;;;;;;19.50;47.60;98331.50;5008299;28;20236;-28
2024/02/04 09:46:36;;;;;;;1.43;1.33;;;;;;;19.48;47.57;98336.50;5020293;28;20222;-25
2024/02/04 09:49:03;;;;;;;3.13;1.50;;;;;;;19.42;47.67;98325.16;5013564;28;20631;-25
2024/02/04 09:51:30;;;;;;;4.50;1.50;;;;;;;19.45;47.51;98332.97;5000586;28;20260;-25
2024/02/04 09:53:59;;;;;;;3.57;1.43;;;;;;;19.46;47.65;98337.25;4994062;28;20203;-25
2024/02/04 09:56:25;;;;;;;2.27;1.37;;;;;;;19.45;47.73;98335.50;4997838;28;20217;-27
2024/02/04 09:58:52;;;;;;;2.03;1.13;;;;;;;19.44;47.79;98339.72;4982592;28;20252;-25
2024/02/04 10:01:20;;;;;;;1.40;1.30;;;;;;;19.44;47.60;98332.06;5015372;28;20249;-25
2024/02/04 10:03:47;;;;;;;2.53;1.30;;;;;;;19.36;47.75;98319.75;4994808;28;20198;-25
2024/02/04 10:06:14;;;;;;;1.60;1.50;;;;;;;19.42;47.90;98336.22;5013993;28;20288;-26
2024/02/04 10:08:41;;;;;;;1.33;1.17;;;;;;;19.40;47.59;98330.19;4997608;28;20205;-25
2024/02/04 10:11:09;;;;;;;2.50;1.30;;;;;;;19.40;47.80;98331.84;4976635;28;20195;-25
2024/02/04 10:13:48;;;;;;;2.93;1.60;;;;;;;19.44;47.78;98339.72;5016034;28;20233;-25
2024/02/04 10:16:16;;;;;;;1.57;1.40;;;;;;;19.44;47.66;98334.63;5017255;28;20579;-26
2024/02/04 10:18:44;;;;;;;1.53;1.43;;;;;;;19.46;47.84;98334.69;5013420;28;20206;-25
2024/02/04 10:21:18;;;;;;;1.20;1.10;;;;;;;19.45;47.65;98326.16;4994175;28;20199;-25
2024/02/04 10:23:45;;;;;;;1.93;1.13;;;;;;;19.43;47.73;98327.78;5016788;28;20230;-25
2024/02/04 10:26:12;;;;;;;1.40;1.30;;;;;;;19.43;47.83;98326.91;5017153;28;20254;-25
2024/02/04 10:28:40;;;;;;;1.20;1.10;;;;;;;19.41;47.68;98326.81;5017440;28;20669;-25
2024/02/04 10:31:10;;;;;;;1.20;1.10;;;;;;;19.44;47.14;98319.31;5012457;28;20213;-25
2024/02/04 10:33:37;;;;;;;2.93;1.30;;;;;;;19.44;47.09;98323.53;5014028;28;20202;-25
2024/02/04 10:36:04;;;;;;;2.23;1.40;;;;;;;19.43;47.34;98314.16;5014088;28;20260;-27
2024/02/04 10:38:32;;;;;;;9.27;1.50;;;;;;;19.41;47.64;98306.44;5015366;28;20260;-25
2024/02/04 10:41:01;;;;;;;1.23;1.10;;;;;;;19.45;47.64;98292.16;5013564;28;20206;-25
2024/02/04 10:43:31;;;;;;;1.30;1.20;;;;;;;19.44;47.78;98280.19;5012828;28;20225;-27
2024/02/04 10:45:57;;;;;;;1.27;1.17;;;;;;;19.42;47.61;98271.63;5031347;28;20252;-25
2024/02/04 10:48:25;;;;;;;1.57;1.47;;;;;;;19.43;47.61;98288.66;4979145;28;20205;-37
2024/02/04 10:50:51;;;;;;;1.30;1.20;;;;;;;19.43;47.73;98278.47;5009397;28;20198;-26
2024/02/04 10:53:18;;;;;;;2.17;1.30;;;;;;;19.41;47.62;98275.84;4980457;28;20199;-25
2024/02/04 10:55:46;;;;;;;1.40;1.30;;;;;;;19.43;47.83;98278.47;4982898;28;20223;-26
2024/02/04 10:58:13;;;;;;;2.97;1.20;;;;;;;19.42;47.70;98275.03;5001981;28;20205;-25
2024/02/04 11:00:40;;;;;;;2.80;1.30;;;;;;;19.41;47.59;98278.38;5009228;28;20229;-25
2024/02/04 11:03:07;;;;;;;1.50;1.40;;;;;;;19.41;47.71;98277.50;5012546;28;20202;-28
2024/02/04 11:05:35;;;;;;;3.07;1.20;;;;;;;19.42;47.61;98274.19;5010825;28;20253;-25
2024/02/04 11:08:03;;;;;;;1.67;1.40;;;;;;;19.41;47.78;98278.38;4994035;28;20209;-25
2024/02/04 11:10:30;;;;;;;1.40;1.30;;;;;;;19.41;47.71;98264.75;4995849;28;20293;-25
2024/02/04 11:13:00;;;;;;;1.37;1.27;;;;;;;19.41;47.92;98265.63;4994583;28;20294;-27
2024/02/04 11:15:29;;;;;;;1.23;1.10;;;;;;;19.41;47.67;98254.56;4988549;28;20854;-28
2024/02/04 11:18:14;;;;;;;1.43;1.33;;;;;;;19.39;47.80;98246.84;4990644;28;20198;-25
2024/02/04 11:21:01;;;;;;;1.27;1.23;;;;;;;19.40;47.85;98248.63;5010564;28;20638;-25
2024/02/04 11:23:57;;;;;;;1.43;1.27;;;;;;;19.39;47.89;98251.94;4990694;28;20202;-29
2024/02/04 11:26:24;;;;;;;1.30;1.20;;;;;;;19.35;47.73;98241.50;4996756;28;20226;-26
2024/02/04 11:28:51;;;;;;;1.40;1.30;;;;;;;19.39;47.85;98254.47;4990819;28;20206;-25
2024/02/04 11:31:18;;;;;;;1.20;1.10;;;;;;;19.39;47.62;98248.53;5000611;28;20206;-27
2024/02/04 11:33:45;;;;;;;1.20;1.20;;;;;;;19.39;47.87;98243.44;5011619;28;20217;-25